createdAt,value
2022-11-10T00:01:10.495Z,101715.38
2022-11-10T00:03:38.845Z,101717.13
2022-11-10T00:06:07.283Z,101732.25
2022-11-10T00:08:34.164Z,101736.81
2022-11-10T00:11:07.607Z,101721.47
2022-11-10T00:13:56.413Z,101726.16
2022-11-10T00:16:41.631Z,101719.22
2022-11-10T00:19:10.694Z,101715.00
2022-11-10T00:21:39.660Z,101719.47
2022-11-10T00:24:08.412Z,101723.06
2022-11-10T00:26:34.932Z,101732.38
2022-11-10T00:29:01.499Z,101735.22
2022-11-10T00:31:28.688Z,101741.66
2022-11-10T00:33:55.846Z,101745.38
2022-11-10T00:36:22.687Z,101759.13
2022-11-10T00:38:52.835Z,101753.69
2022-11-10T00:41:19.772Z,101750.06
2022-11-10T00:43:46.394Z,101758.50
2022-11-10T00:46:13.178Z,101761.22
2022-11-10T00:48:41.905Z,101755.03
2022-11-10T00:51:17.718Z,101760.47
2022-11-10T00:53:46.613Z,101759.63
2022-11-10T00:56:13.234Z,101748.47
2022-11-10T00:58:42.057Z,101768.03
2022-11-10T01:01:09.642Z,101758.13
2022-11-10T01:03:36.582Z,101758.59
2022-11-10T01:06:14.411Z,101762.72
2022-11-10T01:08:42.378Z,101766.28
2022-11-10T01:11:13.917Z,101765.44
2022-11-10T01:13:40.909Z,101766.41
2022-11-10T01:16:15.768Z,101772.09
2022-11-10T01:18:42.931Z,101771.47
2022-11-10T01:21:09.771Z,101787.59
2022-11-10T01:23:36.688Z,101800.25
2022-11-10T01:26:06.461Z,101803.94
2022-11-10T01:28:36.783Z,101797.13
2022-11-10T01:31:10.858Z,101792.41
2022-11-10T01:33:40.101Z,101802.59
2022-11-10T01:36:09.325Z,101805.94
2022-11-10T01:38:38.055Z,101798.72
2022-11-10T01:41:07.115Z,101808.66
2022-11-10T01:43:34.445Z,101810.50
2022-11-10T01:46:02.025Z,101796.47
2022-11-10T01:48:44.057Z,101801.69
2022-11-10T01:51:18.538Z,101800.94
2022-11-10T01:53:49.892Z,101800.22
2022-11-10T01:56:16.951Z,101797.63
2022-11-10T01:58:53.378Z,101799.44
2022-11-10T02:01:22.641Z,101804.03
2022-11-10T02:03:51.908Z,101800.44
2022-11-10T02:06:24.797Z,101800.44
2022-11-10T02:08:56.794Z,101806.03
2022-11-10T02:11:23.537Z,101801.16
2022-11-10T02:13:52.826Z,101801.44
2022-11-10T02:16:19.529Z,101813.47
2022-11-10T02:18:46.089Z,101819.66
2022-11-10T02:21:16.738Z,101824.09
2022-11-10T02:23:52.181Z,101825.09
2022-11-10T02:26:27.865Z,101842.19
2022-11-10T02:28:59.316Z,101826.31
2022-11-10T02:31:25.861Z,101843.53
2022-11-10T02:33:54.671Z,101852.97
2022-11-10T02:36:21.210Z,101856.53
2022-11-10T02:38:47.703Z,101856.53
2022-11-10T02:41:14.176Z,101855.78
2022-11-10T02:43:40.873Z,101853.06
2022-11-10T02:46:07.334Z,101855.06
2022-11-10T02:48:33.858Z,101858.75
2022-11-10T02:51:00.387Z,101853.78
2022-11-10T02:53:26.891Z,101844.25
2022-11-10T02:55:53.496Z,101856.63
2022-11-10T02:58:20.009Z,101855.88
2022-11-10T03:00:46.550Z,101868.75
2022-11-10T03:03:13.070Z,101872.44
2022-11-10T03:05:39.637Z,101860.81
2022-11-10T03:08:06.337Z,101867.34
2022-11-10T03:10:33.041Z,101875.53
2022-11-10T03:13:01.888Z,101875.63
2022-11-10T03:15:29.152Z,101875.00
2022-11-10T03:17:56.391Z,101876.75
2022-11-10T03:20:22.944Z,101874.38
2022-11-10T03:22:49.455Z,101899.84
2022-11-10T03:25:16.039Z,101886.34
2022-11-10T03:27:42.542Z,101904.56
2022-11-10T03:30:10.476Z,101896.63
2022-11-10T03:32:37.089Z,101894.25
2022-11-10T03:35:04.009Z,101913.69
2022-11-10T03:37:30.640Z,101909.59
2022-11-10T03:39:57.142Z,101918.41
2022-11-10T03:42:23.650Z,101924.84
2022-11-10T03:44:50.145Z,101896.03
2022-11-10T03:47:16.884Z,101921.34
2022-11-10T03:49:43.486Z,101925.94
2022-11-10T03:52:10.101Z,101932.34
2022-11-10T03:54:36.609Z,101926.06
2022-11-10T03:57:03.184Z,101931.50
2022-11-10T03:59:29.687Z,101915.50
2022-11-10T04:01:56.356Z,101910.28
2022-11-10T04:04:41.660Z,101919.63
2022-11-10T04:07:30.787Z,101933.25
2022-11-10T04:09:57.268Z,101946.88
2022-11-10T04:12:42.370Z,101948.81
2022-11-10T04:15:32.508Z,101948.81
2022-11-10T04:18:19.105Z,101957.09
2022-11-10T04:20:48.345Z,101964.38
2022-11-10T04:23:28.087Z,101966.16
2022-11-10T04:26:15.847Z,101969.09
2022-11-10T04:28:43.278Z,101973.69
2022-11-10T04:31:10.239Z,101971.19
2022-11-10T04:33:37.652Z,101984.41
2022-11-10T04:36:07.021Z,101981.94
2022-11-10T04:38:34.010Z,101960.31
2022-11-10T04:41:00.696Z,101998.28
2022-11-10T04:43:27.773Z,102004.59
2022-11-10T04:45:54.935Z,102013.72
2022-11-10T04:48:22.148Z,102019.06
2022-11-10T04:50:51.133Z,102011.91
2022-11-10T04:53:20.905Z,102014.06
2022-11-10T04:55:47.925Z,102017.56
2022-11-10T04:58:14.847Z,102026.47
2022-11-10T05:00:42.375Z,102029.31
2022-11-10T05:03:11.075Z,102021.47
2022-11-10T05:05:40.157Z,102031.41
2022-11-10T05:08:10.270Z,102027.66
2022-11-10T05:10:38.038Z,102027.25
2022-11-10T05:13:06.172Z,102042.38
2022-11-10T05:15:33.234Z,102026.16
2022-11-10T05:18:00.018Z,102029.75
2022-11-10T05:20:27.291Z,101992.88
2022-11-10T05:23:12.399Z,102030.66
2022-11-10T05:25:41.653Z,102026.16
2022-11-10T05:28:09.902Z,102026.16
2022-11-10T05:30:36.979Z,102034.34
2022-11-10T05:33:04.402Z,102045.22
2022-11-10T05:35:33.369Z,102038.91
2022-11-10T05:37:59.983Z,102042.81
2022-11-10T05:40:28.929Z,102052.63
2022-11-10T05:42:55.526Z,102054.25
2022-11-10T05:45:26.196Z,102054.34
2022-11-10T05:47:53.415Z,102059.91
2022-11-10T05:50:21.453Z,102057.28
2022-11-10T05:52:50.547Z,102051.97
2022-11-10T05:55:23.394Z,102062.75
2022-11-10T05:57:51.463Z,102066.34
2022-11-10T06:00:30.092Z,102070.91
2022-11-10T06:03:07.984Z,102077.34
2022-11-10T06:05:35.857Z,102082.69
2022-11-10T06:08:06.627Z,102081.78
2022-11-10T06:10:34.676Z,102078.31
2022-11-10T06:13:01.935Z,102074.84
2022-11-10T06:15:28.913Z,102072.88
2022-11-10T06:17:56.273Z,102074.75
2022-11-10T06:20:23.845Z,102083.13
2022-11-10T06:23:07.248Z,102080.06
2022-11-10T06:25:35.797Z,102091.94
2022-11-10T06:28:03.149Z,102100.09
2022-11-10T06:30:31.121Z,102100.94
2022-11-10T06:32:58.072Z,102102.81
2022-11-10T06:35:25.533Z,102110.13
2022-11-10T06:38:01.562Z,102127.31
2022-11-10T06:40:29.076Z,102120.47
2022-11-10T06:42:55.990Z,102141.03
2022-11-10T06:45:23.320Z,102135.78
2022-11-10T06:47:58.419Z,102147.56
2022-11-10T06:50:24.953Z,102149.28
2022-11-10T06:52:58.844Z,102151.38
2022-11-10T06:55:28.164Z,102160.19
2022-11-10T06:57:54.845Z,102165.41
2022-11-10T07:00:22.126Z,102161.72
2022-11-10T07:02:48.852Z,102156.28
2022-11-10T07:05:15.467Z,102153.56
2022-11-10T07:07:42.823Z,102156.28
2022-11-10T07:10:11.763Z,102168.25
2022-11-10T07:12:38.302Z,102169.78
2022-11-10T07:15:05.646Z,102183.97
2022-11-10T07:17:32.444Z,102195.28
2022-11-10T07:19:59.069Z,102195.50
2022-11-10T07:22:25.590Z,102198.31
2022-11-10T07:24:54.412Z,102210.09
2022-11-10T07:27:23.416Z,102214.78
2022-11-10T07:29:50.046Z,102213.81
2022-11-10T07:32:16.620Z,102226.41
2022-11-10T07:34:48.001Z,102215.41
2022-11-10T07:37:16.809Z,102213.59
2022-11-10T07:39:43.469Z,102221.50
2022-11-10T07:42:10.010Z,102217.94
2022-11-10T07:44:36.578Z,102211.50
2022-11-10T07:47:03.175Z,102213.91
2022-11-10T07:49:29.704Z,102214.78
2022-11-10T07:51:56.297Z,102208.09
2022-11-10T07:54:22.993Z,102210.50
2022-11-10T07:56:49.682Z,102219.47
2022-11-10T07:59:16.285Z,102215.97
2022-11-10T08:01:42.845Z,102226.22
2022-11-10T08:04:09.445Z,102237.75
2022-11-10T08:06:38.413Z,102241.13
2022-11-10T08:09:07.121Z,102248.97
2022-11-10T08:11:33.839Z,102261.28
2022-11-10T08:14:00.338Z,102267.28
2022-11-10T08:16:26.885Z,102254.50
2022-11-10T08:18:53.634Z,102264.00
2022-11-10T08:21:22.669Z,102260.97
2022-11-10T08:23:51.457Z,102267.06
2022-11-10T08:26:18.385Z,102262.13
2022-11-10T08:28:45.152Z,102260.03
2022-11-10T08:31:11.749Z,102263.19
2022-11-10T08:33:38.281Z,102259.16
2022-11-10T08:36:07.332Z,102246.25
2022-11-10T08:38:33.906Z,102266.66
2022-11-10T08:41:00.500Z,102269.94
2022-11-10T08:43:27.025Z,102272.97
2022-11-10T08:45:56.081Z,102267.28
2022-11-10T08:48:23.709Z,102282.94
2022-11-10T08:50:51.632Z,102279.53
2022-11-10T08:53:21.113Z,102280.19
2022-11-10T08:55:48.509Z,102269.69
2022-11-10T08:58:17.508Z,102287.84
2022-11-10T09:00:44.721Z,102284.66
2022-11-10T09:03:19.067Z,102292.94
2022-11-10T09:05:52.407Z,102289.56
2022-11-10T09:08:23.409Z,102306.66
2022-11-10T09:10:52.710Z,102305.06
2022-11-10T09:13:29.105Z,102308.94
2022-11-10T09:16:00.395Z,102302.69
2022-11-10T09:18:26.985Z,102300.19
2022-11-10T09:20:55.771Z,102309.00
2022-11-10T09:23:24.817Z,102309.97
2022-11-10T09:25:54.141Z,102307.59
2022-11-10T09:28:21.847Z,102310.09
2022-11-10T09:30:50.391Z,102307.69
2022-11-10T09:33:20.256Z,102303.53
2022-11-10T09:35:47.371Z,102303.91
2022-11-10T09:38:14.125Z,102304.91
2022-11-10T09:41:06.572Z,102325.28
2022-11-10T09:43:51.282Z,102316.59
2022-11-10T09:46:29.058Z,102320.72
2022-11-10T09:49:03.682Z,102319.31
2022-11-10T09:51:41.750Z,102312.25
2022-11-10T09:54:22.493Z,102300.25
2022-11-10T09:56:53.762Z,102315.34
2022-11-10T09:59:26.648Z,102322.03
2022-11-10T10:02:13.535Z,102319.88
2022-11-10T10:05:05.069Z,102327.72
2022-11-10T10:08:00.254Z,102329.47
2022-11-10T10:10:52.089Z,102343.13
2022-11-10T10:13:28.032Z,102352.00
2022-11-10T10:16:26.489Z,102366.81
2022-11-10T10:18:59.870Z,102368.97
2022-11-10T10:21:40.932Z,102368.44
2022-11-10T10:24:19.807Z,102366.66
2022-11-10T10:26:53.731Z,102368.09
2022-11-10T10:29:25.030Z,102374.31
2022-11-10T10:31:53.332Z,102380.56
2022-11-10T10:34:30.241Z,102387.03
2022-11-10T10:36:57.040Z,102401.53
2022-11-10T10:39:36.312Z,102395.38
2022-11-10T10:42:07.313Z,102401.91
2022-11-10T10:44:33.823Z,102409.31
2022-11-10T10:47:04.470Z,102408.06
2022-11-10T10:49:33.787Z,102407.84
2022-11-10T10:52:04.859Z,102414.50
2022-11-10T10:54:36.883Z,102400.50
2022-11-10T10:57:23.368Z,102403.56
2022-11-10T11:00:11.920Z,102392.75
2022-11-10T11:02:40.680Z,102407.38
2022-11-10T11:05:17.261Z,102397.66
2022-11-10T11:08:17.696Z,102380.75
2022-11-10T11:10:46.210Z,102386.84
2022-11-10T11:13:27.685Z,102379.91
2022-11-10T11:16:03.607Z,102387.75
2022-11-10T11:18:32.048Z,102383.53
2022-11-10T11:21:08.270Z,102378.88
2022-11-10T11:23:43.824Z,102378.56
2022-11-10T11:26:28.133Z,102378.16
2022-11-10T11:29:19.497Z,102393.50
2022-11-10T11:32:23.613Z,102399.56
2022-11-10T11:35:06.281Z,102406.34
2022-11-10T11:37:49.041Z,102396.94
2022-11-10T11:40:37.972Z,102410.56
2022-11-10T11:43:07.504Z,102415.50
2022-11-10T11:45:53.320Z,102419.69
2022-11-10T11:48:40.825Z,102420.44
2022-11-10T11:51:18.728Z,102417.09
2022-11-10T11:54:22.523Z,102440.13
2022-11-10T11:56:50.691Z,102445.19
2022-11-10T11:59:52.891Z,102451.28
2022-11-10T12:02:47.520Z,102455.16
2022-11-10T12:05:58.074Z,102456.31
2022-11-10T12:08:54.192Z,102457.28
2022-11-10T12:11:44.291Z,102463.78
2022-11-10T12:14:38.572Z,102450.59
2022-11-10T12:17:48.953Z,102454.94
2022-11-10T12:20:33.446Z,102445.53
2022-11-10T12:23:13.275Z,102452.13
2022-11-10T12:26:02.681Z,102446.91
2022-11-10T12:28:49.844Z,102457.22
2022-11-10T12:31:21.945Z,102455.81
2022-11-10T12:33:56.761Z,102447.88
2022-11-10T12:36:25.527Z,102458.13
2022-11-10T12:38:59.677Z,102459.88
2022-11-10T12:41:34.968Z,102461.22
2022-11-10T12:44:04.717Z,102466.22
2022-11-10T12:46:31.291Z,102460.84
2022-11-10T12:49:00.806Z,102460.84
2022-11-10T12:51:42.950Z,102452.75
2022-11-10T12:54:16.639Z,102460.53
2022-11-10T12:56:57.548Z,102464.47
2022-11-10T12:59:34.121Z,102468.63
2022-11-10T13:02:17.931Z,102475.78
2022-11-10T13:04:44.516Z,102474.75
2022-11-10T13:07:13.919Z,102471.50
2022-11-10T13:09:43.862Z,102464.16
2022-11-10T13:12:10.321Z,102467.72
2022-11-10T13:14:38.467Z,102468.38
2022-11-10T13:17:05.677Z,102472.47
2022-11-10T13:19:38.815Z,102473.91
2022-11-10T13:22:10.332Z,102479.00
2022-11-10T13:24:42.561Z,102467.44
2022-11-10T13:27:33.581Z,102468.41
2022-11-10T13:30:00.601Z,102484.13
2022-11-10T13:32:30.271Z,102492.41
2022-11-10T13:35:28.566Z,102491.44
2022-11-10T13:37:56.481Z,102497.53
2022-11-10T13:40:23.249Z,102493.00
2022-11-10T13:42:58.902Z,102485.63
2022-11-10T13:45:36.038Z,102477.84
2022-11-10T13:48:11.711Z,102469.00
2022-11-10T13:50:41.239Z,102465.53
2022-11-10T13:53:41.389Z,102460.84
2022-11-10T13:56:32.881Z,102461.66
2022-11-10T13:58:59.686Z,102452.47
2022-11-10T14:01:30.312Z,102455.25
2022-11-10T14:04:02.353Z,102472.53
2022-11-10T14:06:47.106Z,102475.16
2022-11-10T14:09:23.040Z,102470.22
2022-11-10T14:11:55.988Z,102440.69
2022-11-10T14:14:52.030Z,102467.06
2022-11-10T14:17:29.442Z,102470.25
2022-11-10T14:19:56.059Z,102458.94
2022-11-10T14:22:34.788Z,102461.25
2022-11-10T14:25:01.412Z,102462.72
2022-11-10T14:27:33.896Z,102445.78
2022-11-10T14:30:24.685Z,102456.38
2022-11-10T14:32:56.477Z,102453.16
2022-11-10T14:35:26.813Z,102461.00
2022-11-10T14:37:59.432Z,102458.38
2022-11-10T14:40:28.222Z,102463.47
2022-11-10T14:42:55.527Z,102474.59
2022-11-10T14:45:25.185Z,102481.28
2022-11-10T14:48:00.523Z,102490.22
2022-11-10T14:50:36.233Z,102493.69
2022-11-10T14:53:14.625Z,102488.75
2022-11-10T14:55:44.856Z,102493.97
2022-11-10T14:58:15.153Z,102498.16
2022-11-10T15:00:44.502Z,102495.09
2022-11-10T15:03:20.205Z,102478.28
2022-11-10T15:05:48.345Z,102478.25
2022-11-10T15:08:16.895Z,102489.25
2022-11-10T15:10:53.423Z,102480.84
2022-11-10T15:13:36.267Z,102495.00
2022-11-10T15:16:21.086Z,102501.94
2022-11-10T15:18:50.902Z,102505.09
2022-11-10T15:21:20.274Z,102523.88
2022-11-10T15:23:55.357Z,102525.28
2022-11-10T15:26:25.217Z,102533.06
2022-11-10T15:28:52.845Z,102535.38
2022-11-10T15:31:28.344Z,102532.44
2022-11-10T15:34:05.586Z,102525.88
2022-11-10T15:36:35.723Z,102515.28
2022-11-10T15:39:20.284Z,102525.94
2022-11-10T15:41:48.996Z,102507.53
2022-11-10T15:44:21.540Z,102520.91
2022-11-10T15:46:52.571Z,102512.63
2022-11-10T15:49:31.439Z,102525.88
2022-11-10T15:52:01.829Z,102546.22
2022-11-10T15:54:32.040Z,102543.97
2022-11-10T15:56:58.756Z,102546.25
2022-11-10T15:59:25.460Z,102555.00
2022-11-10T16:01:52.943Z,102553.53
2022-11-10T16:04:19.587Z,102557.66
2022-11-10T16:06:46.750Z,102547.84
2022-11-10T16:09:14.365Z,102542.75
2022-11-10T16:11:43.539Z,102553.06
2022-11-10T16:14:16.876Z,102549.00
2022-11-10T16:16:43.863Z,102546.63
2022-11-10T16:19:11.638Z,102550.41
2022-11-10T16:21:38.618Z,102555.88
2022-11-10T16:24:05.368Z,102547.13
2022-11-10T16:26:34.620Z,102558.09
2022-11-10T16:29:01.709Z,102560.25
2022-11-10T16:31:29.247Z,102558.13
2022-11-10T16:33:57.845Z,102571.59
2022-11-10T16:36:33.563Z,102566.59
2022-11-10T16:39:09.851Z,102574.09
2022-11-10T16:41:36.494Z,102568.50
2022-11-10T16:44:03.638Z,102570.25
2022-11-10T16:46:30.515Z,102571.59
2022-11-10T16:49:02.837Z,102585.78
2022-11-10T16:51:33.653Z,102585.28
2022-11-10T16:54:00.134Z,102592.91
2022-11-10T16:56:27.461Z,102596.25
2022-11-10T16:58:58.732Z,102598.13
2022-11-10T17:01:29.938Z,102602.38
2022-11-10T17:04:02.353Z,102600.84
2022-11-10T17:06:29.751Z,102603.97
2022-11-10T17:09:01.034Z,102601.59
2022-11-10T17:11:27.643Z,102597.97
2022-11-10T17:13:54.242Z,102603.31
2022-11-10T17:16:31.259Z,102610.03
2022-11-10T17:19:00.858Z,102604.50
2022-11-10T17:21:33.170Z,102621.72
2022-11-10T17:24:03.047Z,102633.13
2022-11-10T17:26:32.490Z,102636.22
2022-11-10T17:28:59.092Z,102636.47
2022-11-10T17:31:25.789Z,102632.13
2022-11-10T17:33:55.792Z,102630.59
2022-11-10T17:36:24.871Z,102626.50
2022-11-10T17:38:52.414Z,102630.94
2022-11-10T17:41:20.035Z,102605.53
2022-11-10T17:43:47.404Z,102623.22
2022-11-10T17:46:14.847Z,102629.81
2022-11-10T17:48:41.660Z,102636.38
2022-11-10T17:51:18.904Z,102633.13
2022-11-10T17:53:45.684Z,102632.03
2022-11-10T17:56:12.546Z,102642.19
2022-11-10T17:58:41.447Z,102655.25
2022-11-10T18:01:14.572Z,102664.31
2022-11-10T18:03:41.192Z,102655.94
2022-11-10T18:06:07.952Z,102657.81
2022-11-10T18:08:34.474Z,102659.91
2022-11-10T18:11:01.396Z,102666.00
2022-11-10T18:13:27.899Z,102666.22
2022-11-10T18:15:58.320Z,102666.34
2022-11-10T18:18:24.878Z,102672.84
2022-11-10T18:20:51.417Z,102669.44
2022-11-10T18:23:18.063Z,102674.91
2022-11-10T18:25:44.721Z,102674.25
2022-11-10T18:28:14.277Z,102673.41
2022-11-10T18:30:41.395Z,102661.00
2022-11-10T18:33:07.934Z,102664.84
2022-11-10T18:35:38.472Z,102654.91
2022-11-10T18:38:09.137Z,102668.47
2022-11-10T18:40:35.639Z,102663.44
2022-11-10T18:43:07.241Z,102677.88
2022-11-10T18:45:35.793Z,102683.47
2022-11-10T18:48:03.561Z,102681.06
2022-11-10T18:50:30.670Z,102659.13
2022-11-10T18:52:57.714Z,102645.13
2022-11-10T18:55:24.551Z,102652.19
2022-11-10T18:57:51.452Z,102662.38
2022-11-10T19:00:18.137Z,102663.34
2022-11-10T19:02:44.762Z,102662.59
2022-11-10T19:05:13.508Z,102652.13
2022-11-10T19:07:42.451Z,102659.22
2022-11-10T19:10:09.213Z,102662.81
2022-11-10T19:12:35.834Z,102662.06
2022-11-10T19:15:02.388Z,102655.75
2022-11-10T19:17:28.919Z,102658.59
2022-11-10T19:19:56.832Z,102659.66
2022-11-10T19:22:26.137Z,102656.28
2022-11-10T19:25:09.160Z,102662.09
2022-11-10T19:27:38.498Z,102669.44
2022-11-10T19:30:05.581Z,102668.75
2022-11-10T19:32:34.577Z,102690.06
2022-11-10T19:35:01.173Z,102692.16
2022-11-10T19:37:32.179Z,102685.03
2022-11-10T19:40:00.875Z,102677.41
2022-11-10T19:42:27.506Z,102676.84
2022-11-10T19:44:56.523Z,102689.22
2022-11-10T19:47:23.120Z,102695.00
2022-11-10T19:49:52.081Z,102703.09
2022-11-10T19:52:18.621Z,102697.84
2022-11-10T19:54:45.359Z,102707.91
2022-11-10T19:57:11.927Z,102702.66
2022-11-10T19:59:40.918Z,102724.41
2022-11-10T20:02:07.924Z,102722.09
2022-11-10T20:04:54.561Z,102727.34
2022-11-10T20:07:42.133Z,102729.56
2022-11-10T20:10:09.443Z,102735.22
2022-11-10T20:12:35.931Z,102741.97
2022-11-10T20:15:02.499Z,102732.28
2022-11-10T20:17:29.147Z,102740.91
2022-11-10T20:19:55.711Z,102741.13
2022-11-10T20:22:22.200Z,102728.09
2022-11-10T20:24:51.262Z,102739.34
2022-11-10T20:27:17.990Z,102730.94
2022-11-10T20:29:44.569Z,102738.91
2022-11-10T20:32:11.155Z,102749.94
2022-11-10T20:34:37.837Z,102745.47
2022-11-10T20:37:04.330Z,102753.09
2022-11-10T20:39:30.859Z,102751.38
2022-11-10T20:41:57.576Z,102739.44
2022-11-10T20:44:24.147Z,102736.06
2022-11-10T20:46:55.386Z,102742.66
2022-11-10T20:49:22.195Z,102714.22
2022-11-10T20:51:48.912Z,102744.59
2022-11-10T20:54:17.329Z,102736.72
2022-11-10T20:56:44.096Z,102720.09
2022-11-10T20:59:11.104Z,102734.44
2022-11-10T21:01:40.180Z,102734.75
2022-11-10T21:04:06.814Z,102726.00
2022-11-10T21:06:33.341Z,102721.63
2022-11-10T21:08:59.957Z,102718.53
2022-11-10T21:11:45.155Z,102728.38
2022-11-10T21:14:11.712Z,102735.03
2022-11-10T21:16:40.491Z,102724.31
2022-11-10T21:19:07.449Z,102724.72
2022-11-10T21:21:34.631Z,102734.88
2022-11-10T21:24:05.730Z,102743.81
2022-11-10T21:26:37.786Z,102741.41
2022-11-10T21:29:07.677Z,102736.38
2022-11-10T21:31:34.235Z,102748.94
2022-11-10T21:34:00.765Z,102754.50
2022-11-10T21:36:31.255Z,102767.25
2022-11-10T21:38:58.772Z,102769.34
2022-11-10T21:41:27.640Z,102756.66
2022-11-10T21:43:54.147Z,102747.75
2022-11-10T21:46:21.003Z,102753.88
2022-11-10T21:48:49.979Z,102754.50
2022-11-10T21:51:16.654Z,102750.03
2022-11-10T21:53:43.212Z,102763.66
2022-11-10T21:56:11.070Z,102768.44
2022-11-10T21:58:38.457Z,102779.44
2022-11-10T22:01:14.432Z,102780.84
2022-11-10T22:03:43.880Z,102795.47
2022-11-10T22:06:18.689Z,102801.00
2022-11-10T22:08:48.672Z,102808.50
2022-11-10T22:11:39.428Z,102808.50
2022-11-10T22:14:32.153Z,102806.97
2022-11-10T22:17:20.580Z,102801.13
2022-11-10T22:19:47.138Z,102815.53
2022-11-10T22:22:16.566Z,102806.78
2022-11-10T22:24:43.063Z,102813.88
2022-11-10T22:27:09.945Z,102804.91
2022-11-10T22:29:36.475Z,102806.88
2022-11-10T22:32:03.783Z,102806.97
2022-11-10T22:34:30.579Z,102816.31
2022-11-10T22:36:59.873Z,102820.13
2022-11-10T22:39:46.548Z,102821.78
2022-11-10T22:42:34.422Z,102837.38
2022-11-10T22:45:00.916Z,102832.97
2022-11-10T22:47:47.447Z,102837.75
2022-11-10T22:50:14.020Z,102839.59
2022-11-10T22:52:40.560Z,102840.66
2022-11-10T22:55:07.415Z,102841.47
2022-11-10T22:57:36.189Z,102842.53
2022-11-10T23:00:02.896Z,102831.91
2022-11-10T23:02:29.458Z,102825.88
2022-11-10T23:04:55.997Z,102845.63
2022-11-10T23:07:22.524Z,102857.53
2022-11-10T23:09:51.669Z,102855.88
2022-11-10T23:12:18.524Z,102860.44
2022-11-10T23:14:45.013Z,102854.38
2022-11-10T23:17:11.542Z,102853.72
2022-11-10T23:19:38.083Z,102847.28
2022-11-10T23:22:04.604Z,102858.97
2022-11-10T23:24:33.333Z,102851.97
2022-11-10T23:26:59.886Z,102854.78
2022-11-10T23:29:28.808Z,102853.03
2022-11-10T23:31:55.334Z,102865.78
2022-11-10T23:34:21.885Z,102869.47
2022-11-10T23:36:48.444Z,102868.59
2022-11-10T23:39:14.971Z,102871.91
2022-11-10T23:41:41.445Z,102866.38
2022-11-10T23:44:08.235Z,102875.41
2022-11-10T23:46:35.367Z,102881.66
2022-11-10T23:49:01.909Z,102872.41
2022-11-10T23:51:28.464Z,102873.56
2022-11-10T23:53:59.863Z,102874.84
2022-11-10T23:56:26.380Z,102889.66
2022-11-10T23:58:52.912Z,102868.75
